sensor_id;sensor_type;location;lat;lon;timestamp;P1;durP1;ratioP1;P2;durP2;ratioP2
19609;SDS011;9952;47.122;-1.638;2023-02-11T00:02:14;20.00;;;10.80;;
19609;SDS011;9952;47.122;-1.638;2023-02-11T00:06:55;17.87;;;9.87;;
19609;SDS011;9952;47.122;-1.638;2023-02-11T00:11:36;22.33;;;10.60;;
19609;SDS011;9952;47.122;-1.638;2023-02-11T00:16:18;21.97;;;10.33;;
19609;SDS011;9952;47.122;-1.638;2023-02-11T00:21:04;16.37;;;10.10;;
19609;SDS011;9952;47.122;-1.638;2023-02-11T00:25:48;18.73;;;10.73;;
19609;SDS011;9952;47.122;-1.638;2023-02-11T00:30:29;16.93;;;10.27;;
19609;SDS011;9952;47.122;-1.638;2023-02-11T00:35:10;19.43;;;10.80;;
19609;SDS011;9952;47.122;-1.638;2023-02-11T00:39:50;15.10;;;9.57;;
19609;SDS011;9952;47.122;-1.638;2023-02-11T00:44:31;20.93;;;10.27;;
19609;SDS011;9952;47.122;-1.638;2023-02-11T00:49:12;19.20;;;10.33;;
19609;SDS011;9952;47.122;-1.638;2023-02-11T00:53:53;18.93;;;10.80;;
19609;SDS011;9952;47.122;-1.638;2023-02-11T00:58:34;19.77;;;11.17;;
19609;SDS011;9952;47.122;-1.638;2023-02-11T01:03:15;19.87;;;10.50;;
19609;SDS011;9952;47.122;-1.638;2023-02-11T01:07:56;21.63;;;10.70;;
19609;SDS011;9952;47.122;-1.638;2023-02-11T01:12:37;21.50;;;11.10;;
19609;SDS011;9952;47.122;-1.638;2023-02-11T01:17:19;21.47;;;10.43;;
19609;SDS011;9952;47.122;-1.638;2023-02-11T01:22:00;23.00;;;11.67;;
19609;SDS011;9952;47.122;-1.638;2023-02-11T01:26:40;21.13;;;12.77;;
19609;SDS011;9952;47.122;-1.638;2023-02-11T01:31:21;29.90;;;15.13;;
19609;SDS011;9952;47.122;-1.638;2023-02-11T01:36:02;20.77;;;11.83;;
19609;SDS011;9952;47.122;-1.638;2023-02-11T01:41:01;20.20;;;11.77;;
19609;SDS011;9952;47.122;-1.638;2023-02-11T01:50:25;25.13;;;13.63;;
19609;SDS011;9952;47.122;-1.638;2023-02-11T01:55:08;26.63;;;14.80;;
19609;SDS011;9952;47.122;-1.638;2023-02-11T02:00:12;27.73;;;15.00;;
19609;SDS011;9952;47.122;-1.638;2023-02-11T02:05:08;28.53;;;15.80;;
19609;SDS011;9952;47.122;-1.638;2023-02-11T02:10:01;29.57;;;16.50;;
19609;SDS011;9952;47.122;-1.638;2023-02-11T02:14:45;29.50;;;16.73;;
19609;SDS011;9952;47.122;-1.638;2023-02-11T02:34:23;29.10;;;16.40;;
19609;SDS011;9952;47.122;-1.638;2023-02-11T02:39:17;31.47;;;16.03;;
19609;SDS011;9952;47.122;-1.638;2023-02-11T02:44:03;27.37;;;15.37;;
19609;SDS011;9952;47.122;-1.638;2023-02-11T02:48:44;31.53;;;16.33;;
19609;SDS011;9952;47.122;-1.638;2023-02-11T02:53:38;33.03;;;17.23;;
19609;SDS011;9952;47.122;-1.638;2023-02-11T03:03:42;34.37;;;17.20;;
19609;SDS011;9952;47.122;-1.638;2023-02-11T03:08:45;36.50;;;18.83;;
19609;SDS011;9952;47.122;-1.638;2023-02-11T03:13:32;36.23;;;19.30;;
19609;SDS011;9952;47.122;-1.638;2023-02-11T03:18:16;35.63;;;18.23;;
19609;SDS011;9952;47.122;-1.638;2023-02-11T03:23:20;42.43;;;19.20;;
19609;SDS011;9952;47.122;-1.638;2023-02-11T03:28:13;34.63;;;20.33;;
19609;SDS011;9952;47.122;-1.638;2023-02-11T03:33:29;40.63;;;20.20;;
19609;SDS011;9952;47.122;-1.638;2023-02-11T03:38:19;44.57;;;19.13;;
19609;SDS011;9952;47.122;-1.638;2023-02-11T03:43:47;35.43;;;18.43;;
19609;SDS011;9952;47.122;-1.638;2023-02-11T03:48:15;35.27;;;19.00;;
19609;SDS011;9952;47.122;-1.638;2023-02-11T03:53:01;35.70;;;19.43;;
19609;SDS011;9952;47.122;-1.638;2023-02-11T03:57:43;36.97;;;20.73;;
19609;SDS011;9952;47.122;-1.638;2023-02-11T04:02:30;38.20;;;20.50;;
19609;SDS011;9952;47.122;-1.638;2023-02-11T04:07:13;37.43;;;19.80;;
19609;SDS011;9952;47.122;-1.638;2023-02-11T04:11:55;32.77;;;18.83;;
19609;SDS011;9952;47.122;-1.638;2023-02-11T04:16:36;38.33;;;20.33;;
19609;SDS011;9952;47.122;-1.638;2023-02-11T04:21:17;41.87;;;21.03;;
19609;SDS011;9952;47.122;-1.638;2023-02-11T04:25:58;38.10;;;20.57;;
19609;SDS011;9952;47.122;-1.638;2023-02-11T04:30:38;33.87;;;18.93;;
19609;SDS011;9952;47.122;-1.638;2023-02-11T04:35:19;34.23;;;19.23;;
19609;SDS011;9952;47.122;-1.638;2023-02-11T04:40:00;39.30;;;18.73;;
19609;SDS011;9952;47.122;-1.638;2023-02-11T04:44:41;38.80;;;19.33;;
19609;SDS011;9952;47.122;-1.638;2023-02-11T04:49:22;34.67;;;19.17;;
19609;SDS011;9952;47.122;-1.638;2023-02-11T04:54:03;35.67;;;18.37;;
19609;SDS011;9952;47.122;-1.638;2023-02-11T04:58:44;39.33;;;20.27;;
19609;SDS011;9952;47.122;-1.638;2023-02-11T05:03:25;34.17;;;20.03;;
19609;SDS011;9952;47.122;-1.638;2023-02-11T05:08:06;45.00;;;19.90;;
19609;SDS011;9952;47.122;-1.638;2023-02-11T05:12:47;42.93;;;22.53;;
19609;SDS011;9952;47.122;-1.638;2023-02-11T05:17:28;44.80;;;21.13;;
19609;SDS011;9952;47.122;-1.638;2023-02-11T05:22:09;38.60;;;21.17;;
19609;SDS011;9952;47.122;-1.638;2023-02-11T05:26:50;43.40;;;22.87;;
19609;SDS011;9952;47.122;-1.638;2023-02-11T05:31:31;46.43;;;22.10;;
19609;SDS011;9952;47.122;-1.638;2023-02-11T05:36:12;48.80;;;23.00;;
19609;SDS011;9952;47.122;-1.638;2023-02-11T05:40:53;43.57;;;22.80;;
19609;SDS011;9952;47.122;-1.638;2023-02-11T05:45:34;40.13;;;22.37;;
19609;SDS011;9952;47.122;-1.638;2023-02-11T05:50:15;45.53;;;23.93;;
19609;SDS011;9952;47.122;-1.638;2023-02-11T05:54:55;42.00;;;21.70;;
19609;SDS011;9952;47.122;-1.638;2023-02-11T05:59:36;46.37;;;23.40;;
19609;SDS011;9952;47.122;-1.638;2023-02-11T06:04:18;44.33;;;22.93;;
19609;SDS011;9952;47.122;-1.638;2023-02-11T06:08:58;41.13;;;21.77;;
19609;SDS011;9952;47.122;-1.638;2023-02-11T06:13:39;46.57;;;23.30;;
19609;SDS011;9952;47.122;-1.638;2023-02-11T06:18:20;39.13;;;21.73;;
19609;SDS011;9952;47.122;-1.638;2023-02-11T06:23:01;40.53;;;21.17;;
19609;SDS011;9952;47.122;-1.638;2023-02-11T06:27:41;41.10;;;20.80;;
19609;SDS011;9952;47.122;-1.638;2023-02-11T06:32:22;37.40;;;20.27;;
19609;SDS011;9952;47.122;-1.638;2023-02-11T06:37:03;38.23;;;19.83;;
19609;SDS011;9952;47.122;-1.638;2023-02-11T06:41:44;36.97;;;18.17;;
19609;SDS011;9952;47.122;-1.638;2023-02-11T06:46:25;32.53;;;17.47;;
19609;SDS011;9952;47.122;-1.638;2023-02-11T06:51:07;30.17;;;17.60;;
19609;SDS011;9952;47.122;-1.638;2023-02-11T06:55:49;33.70;;;16.73;;
19609;SDS011;9952;47.122;-1.638;2023-02-11T07:00:30;31.03;;;16.27;;
19609;SDS011;9952;47.122;-1.638;2023-02-11T07:05:11;32.57;;;16.73;;
19609;SDS011;9952;47.122;-1.638;2023-02-11T07:09:51;32.37;;;17.20;;
19609;SDS011;9952;47.122;-1.638;2023-02-11T07:14:32;27.80;;;15.10;;
19609;SDS011;9952;47.122;-1.638;2023-02-11T07:19:13;31.73;;;15.83;;
19609;SDS011;9952;47.122;-1.638;2023-02-11T07:23:54;29.53;;;16.47;;
19609;SDS011;9952;47.122;-1.638;2023-02-11T07:28:35;28.93;;;15.23;;
19609;SDS011;9952;47.122;-1.638;2023-02-11T07:33:17;28.90;;;16.37;;
19609;SDS011;9952;47.122;-1.638;2023-02-11T07:37:58;31.60;;;17.77;;
19609;SDS011;9952;47.122;-1.638;2023-02-11T07:42:38;34.67;;;17.30;;
19609;SDS011;9952;47.122;-1.638;2023-02-11T07:47:20;40.43;;;22.33;;
19609;SDS011;9952;47.122;-1.638;2023-02-11T07:52:01;48.27;;;27.43;;
19609;SDS011;9952;47.122;-1.638;2023-02-11T07:56:42;38.17;;;19.93;;
19609;SDS011;9952;47.122;-1.638;2023-02-11T08:01:23;35.60;;;18.67;;
19609;SDS011;9952;47.122;-1.638;2023-02-11T08:06:11;35.83;;;18.17;;
19609;SDS011;9952;47.122;-1.638;2023-02-11T08:10:56;31.90;;;16.87;;
19609;SDS011;9952;47.122;-1.638;2023-02-11T08:15:37;32.50;;;17.27;;
19609;SDS011;9952;47.122;-1.638;2023-02-11T08:20:18;35.07;;;18.27;;
19609;SDS011;9952;47.122;-1.638;2023-02-11T08:24:59;33.13;;;18.47;;
19609;SDS011;9952;47.122;-1.638;2023-02-11T08:29:40;33.20;;;17.87;;
19609;SDS011;9952;47.122;-1.638;2023-02-11T08:34:21;32.17;;;18.57;;
19609;SDS011;9952;47.122;-1.638;2023-02-11T08:39:03;27.27;;;17.37;;
19609;SDS011;9952;47.122;-1.638;2023-02-11T08:43:45;33.97;;;17.87;;
19609;SDS011;9952;47.122;-1.638;2023-02-11T08:48:26;29.23;;;18.30;;
19609;SDS011;9952;47.122;-1.638;2023-02-11T08:53:07;33.93;;;19.27;;
19609;SDS011;9952;47.122;-1.638;2023-02-11T08:57:48;33.43;;;18.30;;
19609;SDS011;9952;47.122;-1.638;2023-02-11T09:02:29;30.00;;;17.57;;
19609;SDS011;9952;47.122;-1.638;2023-02-11T09:07:10;31.80;;;17.67;;
19609;SDS011;9952;47.122;-1.638;2023-02-11T09:11:51;34.10;;;18.13;;
19609;SDS011;9952;47.122;-1.638;2023-02-11T09:16:36;32.47;;;17.73;;
19609;SDS011;9952;47.122;-1.638;2023-02-11T09:21:17;32.70;;;18.87;;
19609;SDS011;9952;47.122;-1.638;2023-02-11T09:25:59;33.87;;;18.27;;
19609;SDS011;9952;47.122;-1.638;2023-02-11T09:30:45;35.07;;;16.80;;
19609;SDS011;9952;47.122;-1.638;2023-02-11T09:35:26;31.77;;;17.13;;
19609;SDS011;9952;47.122;-1.638;2023-02-11T09:40:07;29.47;;;16.37;;
19609;SDS011;9952;47.122;-1.638;2023-02-11T09:44:48;29.97;;;16.60;;
19609;SDS011;9952;47.122;-1.638;2023-02-11T09:49:39;34.50;;;17.23;;
19609;SDS011;9952;47.122;-1.638;2023-02-11T09:54:30;30.83;;;16.33;;
19609;SDS011;9952;47.122;-1.638;2023-02-11T09:59:21;32.53;;;17.63;;
19609;SDS011;9952;47.122;-1.638;2023-02-11T10:13:50;29.37;;;17.70;;
19609;SDS011;9952;47.122;-1.638;2023-02-11T10:24:03;27.33;;;16.17;;
19609;SDS011;9952;47.122;-1.638;2023-02-11T10:28:50;32.37;;;17.13;;
19609;SDS011;9952;47.122;-1.638;2023-02-11T10:38:47;25.20;;;13.77;;
19609;SDS011;9952;47.122;-1.638;2023-02-11T10:43:29;25.90;;;14.33;;
19609;SDS011;9952;47.122;-1.638;2023-02-11T10:53:42;24.03;;;14.60;;
19609;SDS011;9952;47.122;-1.638;2023-02-11T10:58:25;23.60;;;13.97;;
19609;SDS011;9952;47.122;-1.638;2023-02-11T11:03:18;24.37;;;13.47;;
19609;SDS011;9952;47.122;-1.638;2023-02-11T11:08:05;23.87;;;13.33;;
19609;SDS011;9952;47.122;-1.638;2023-02-11T11:12:48;23.10;;;13.53;;
19609;SDS011;9952;47.122;-1.638;2023-02-11T11:17:28;24.47;;;14.50;;
19609;SDS011;9952;47.122;-1.638;2023-02-11T11:22:11;20.53;;;12.17;;
19609;SDS011;9952;47.122;-1.638;2023-02-11T11:27:01;22.87;;;11.57;;
19609;SDS011;9952;47.122;-1.638;2023-02-11T11:36:38;18.00;;;10.30;;
19609;SDS011;9952;47.122;-1.638;2023-02-11T11:41:22;17.00;;;9.27;;
19609;SDS011;9952;47.122;-1.638;2023-02-11T11:46:06;18.20;;;9.63;;
19609;SDS011;9952;47.122;-1.638;2023-02-11T11:50:52;17.47;;;9.67;;
19609;SDS011;9952;47.122;-1.638;2023-02-11T12:00:20;17.17;;;9.57;;
19609;SDS011;9952;47.122;-1.638;2023-02-11T12:20:25;21.00;;;9.93;;
19609;SDS011;9952;47.122;-1.638;2023-02-11T12:25:43;17.83;;;9.70;;
19609;SDS011;9952;47.122;-1.638;2023-02-11T12:35:37;17.83;;;9.80;;
19609;SDS011;9952;47.122;-1.638;2023-02-11T12:45:34;19.20;;;9.90;;
19609;SDS011;9952;47.122;-1.638;2023-02-11T12:50:35;15.97;;;9.80;;
19609;SDS011;9952;47.122;-1.638;2023-02-11T12:55:25;20.07;;;10.17;;
19609;SDS011;9952;47.122;-1.638;2023-02-11T13:00:16;19.47;;;10.30;;
19609;SDS011;9952;47.122;-1.638;2023-02-11T13:05:08;14.40;;;8.13;;
19609;SDS011;9952;47.122;-1.638;2023-02-11T13:10:03;16.40;;;9.40;;
19609;SDS011;9952;47.122;-1.638;2023-02-11T13:14:55;16.27;;;9.60;;
19609;SDS011;9952;47.122;-1.638;2023-02-11T13:19:43;15.03;;;8.77;;
19609;SDS011;9952;47.122;-1.638;2023-02-11T13:39:20;13.87;;;7.83;;
19609;SDS011;9952;47.122;-1.638;2023-02-11T13:48:49;13.63;;;8.67;;
19609;SDS011;9952;47.122;-1.638;2023-02-11T13:58:46;13.60;;;8.67;;
19609;SDS011;9952;47.122;-1.638;2023-02-11T14:03:29;14.10;;;8.70;;
19609;SDS011;9952;47.122;-1.638;2023-02-11T14:08:36;13.37;;;8.43;;
19609;SDS011;9952;47.122;-1.638;2023-02-11T14:19:12;14.53;;;8.13;;
19609;SDS011;9952;47.122;-1.638;2023-02-11T14:23:28;16.93;;;8.40;;
19609;SDS011;9952;47.122;-1.638;2023-02-11T14:28:20;14.53;;;7.77;;
19609;SDS011;9952;47.122;-1.638;2023-02-11T14:33:23;15.03;;;8.23;;
19609;SDS011;9952;47.122;-1.638;2023-02-11T14:43:25;13.47;;;8.53;;
19609;SDS011;9952;47.122;-1.638;2023-02-11T14:48:14;13.17;;;7.83;;
19609;SDS011;9952;47.122;-1.638;2023-02-11T14:52:58;13.07;;;8.20;;
19609;SDS011;9952;47.122;-1.638;2023-02-11T14:57:41;13.83;;;8.00;;
19609;SDS011;9952;47.122;-1.638;2023-02-11T15:02:27;13.83;;;6.30;;
19609;SDS011;9952;47.122;-1.638;2023-02-11T15:07:11;12.00;;;7.50;;
19609;SDS011;9952;47.122;-1.638;2023-02-11T15:11:53;12.20;;;6.37;;
19609;SDS011;9952;47.122;-1.638;2023-02-11T15:16:40;10.87;;;6.70;;
19609;SDS011;9952;47.122;-1.638;2023-02-11T15:21:23;12.03;;;7.30;;
19609;SDS011;9952;47.122;-1.638;2023-02-11T15:26:19;10.73;;;6.40;;
19609;SDS011;9952;47.122;-1.638;2023-02-11T15:31:02;10.73;;;6.63;;
19609;SDS011;9952;47.122;-1.638;2023-02-11T15:36:00;10.20;;;7.27;;
19609;SDS011;9952;47.122;-1.638;2023-02-11T15:40:49;12.53;;;7.13;;
19609;SDS011;9952;47.122;-1.638;2023-02-11T15:50:22;11.80;;;6.90;;
19609;SDS011;9952;47.122;-1.638;2023-02-11T15:55:05;11.27;;;6.63;;
19609;SDS011;9952;47.122;-1.638;2023-02-11T15:59:52;9.17;;;6.77;;
19609;SDS011;9952;47.122;-1.638;2023-02-11T16:04:35;10.90;;;6.90;;
19609;SDS011;9952;47.122;-1.638;2023-02-11T16:09:30;10.43;;;6.70;;
19609;SDS011;9952;47.122;-1.638;2023-02-11T16:14:31;9.87;;;5.87;;
19609;SDS011;9952;47.122;-1.638;2023-02-11T16:19:14;9.83;;;6.30;;
19609;SDS011;9952;47.122;-1.638;2023-02-11T16:23:58;10.23;;;6.60;;
19609;SDS011;9952;47.122;-1.638;2023-02-11T16:28:40;8.37;;;6.00;;
19609;SDS011;9952;47.122;-1.638;2023-02-11T16:33:20;10.93;;;6.63;;
19609;SDS011;9952;47.122;-1.638;2023-02-11T16:38:01;10.17;;;6.57;;
19609;SDS011;9952;47.122;-1.638;2023-02-11T16:42:42;9.80;;;6.10;;
19609;SDS011;9952;47.122;-1.638;2023-02-11T16:47:24;8.10;;;5.70;;
19609;SDS011;9952;47.122;-1.638;2023-02-11T16:52:08;10.33;;;5.50;;
19609;SDS011;9952;47.122;-1.638;2023-02-11T16:56:53;11.53;;;6.67;;
19609;SDS011;9952;47.122;-1.638;2023-02-11T17:01:35;7.83;;;4.50;;
19609;SDS011;9952;47.122;-1.638;2023-02-11T17:06:18;7.60;;;5.23;;
19609;SDS011;9952;47.122;-1.638;2023-02-11T17:10:59;9.70;;;5.50;;
19609;SDS011;9952;47.122;-1.638;2023-02-11T17:15:39;9.97;;;5.97;;
19609;SDS011;9952;47.122;-1.638;2023-02-11T17:20:20;13.03;;;6.63;;
19609;SDS011;9952;47.122;-1.638;2023-02-11T17:25:01;9.30;;;5.67;;
19609;SDS011;9952;47.122;-1.638;2023-02-11T17:29:42;12.73;;;6.93;;
19609;SDS011;9952;47.122;-1.638;2023-02-11T17:34:24;23.47;;;13.10;;
19609;SDS011;9952;47.122;-1.638;2023-02-11T17:39:05;14.83;;;8.70;;
19609;SDS011;9952;47.122;-1.638;2023-02-11T17:43:46;10.60;;;6.37;;
19609;SDS011;9952;47.122;-1.638;2023-02-11T17:48:27;11.20;;;5.90;;
19609;SDS011;9952;47.122;-1.638;2023-02-11T17:53:08;12.60;;;7.80;;
19609;SDS011;9952;47.122;-1.638;2023-02-11T17:57:48;10.50;;;6.73;;
19609;SDS011;9952;47.122;-1.638;2023-02-11T18:02:29;9.27;;;6.07;;
19609;SDS011;9952;47.122;-1.638;2023-02-11T18:07:10;17.23;;;8.80;;
19609;SDS011;9952;47.122;-1.638;2023-02-11T18:11:51;17.07;;;10.03;;
19609;SDS011;9952;47.122;-1.638;2023-02-11T18:16:32;20.63;;;10.43;;
19609;SDS011;9952;47.122;-1.638;2023-02-11T18:21:16;27.23;;;19.27;;
19609;SDS011;9952;47.122;-1.638;2023-02-11T18:25:58;14.83;;;10.07;;
19609;SDS011;9952;47.122;-1.638;2023-02-11T18:30:42;21.63;;;11.53;;
19609;SDS011;9952;47.122;-1.638;2023-02-11T18:35:23;17.57;;;10.97;;
19609;SDS011;9952;47.122;-1.638;2023-02-11T18:40:04;19.33;;;11.73;;
19609;SDS011;9952;47.122;-1.638;2023-02-11T18:44:45;19.23;;;12.30;;
19609;SDS011;9952;47.122;-1.638;2023-02-11T18:49:26;37.20;;;22.17;;
19609;SDS011;9952;47.122;-1.638;2023-02-11T18:54:07;21.70;;;12.80;;
19609;SDS011;9952;47.122;-1.638;2023-02-11T18:58:48;21.07;;;12.00;;
19609;SDS011;9952;47.122;-1.638;2023-02-11T19:03:30;21.70;;;12.60;;
19609;SDS011;9952;47.122;-1.638;2023-02-11T19:08:11;32.50;;;15.80;;
19609;SDS011;9952;47.122;-1.638;2023-02-11T19:12:52;25.03;;;12.87;;
19609;SDS011;9952;47.122;-1.638;2023-02-11T19:17:43;21.40;;;11.40;;
19609;SDS011;9952;47.122;-1.638;2023-02-11T19:22:24;18.37;;;11.83;;
19609;SDS011;9952;47.122;-1.638;2023-02-11T19:27:04;19.10;;;11.83;;
19609;SDS011;9952;47.122;-1.638;2023-02-11T19:31:45;20.83;;;12.40;;
19609;SDS011;9952;47.122;-1.638;2023-02-11T19:36:26;21.87;;;12.80;;
19609;SDS011;9952;47.122;-1.638;2023-02-11T19:41:11;25.43;;;14.27;;
19609;SDS011;9952;47.122;-1.638;2023-02-11T19:45:54;19.53;;;11.83;;
19609;SDS011;9952;47.122;-1.638;2023-02-11T19:50:36;17.80;;;11.93;;
19609;SDS011;9952;47.122;-1.638;2023-02-11T19:55:17;20.73;;;11.17;;
19609;SDS011;9952;47.122;-1.638;2023-02-11T19:59:58;22.07;;;12.87;;
19609;SDS011;9952;47.122;-1.638;2023-02-11T20:04:40;21.87;;;11.90;;
19609;SDS011;9952;47.122;-1.638;2023-02-11T20:09:21;23.70;;;13.67;;
19609;SDS011;9952;47.122;-1.638;2023-02-11T20:14:02;26.77;;;14.37;;
19609;SDS011;9952;47.122;-1.638;2023-02-11T20:18:44;30.50;;;13.80;;
19609;SDS011;9952;47.122;-1.638;2023-02-11T20:23:27;23.00;;;13.50;;
19609;SDS011;9952;47.122;-1.638;2023-02-11T20:28:08;22.83;;;13.77;;
19609;SDS011;9952;47.122;-1.638;2023-02-11T20:32:49;21.90;;;13.53;;
19609;SDS011;9952;47.122;-1.638;2023-02-11T20:37:30;24.10;;;14.50;;
19609;SDS011;9952;47.122;-1.638;2023-02-11T20:42:11;23.83;;;14.10;;
19609;SDS011;9952;47.122;-1.638;2023-02-11T20:46:53;22.83;;;14.00;;
19609;SDS011;9952;47.122;-1.638;2023-02-11T20:51:34;21.90;;;14.23;;
19609;SDS011;9952;47.122;-1.638;2023-02-11T20:56:17;28.30;;;14.53;;
19609;SDS011;9952;47.122;-1.638;2023-02-11T21:01:13;27.33;;;14.27;;
19609;SDS011;9952;47.122;-1.638;2023-02-11T21:05:59;28.10;;;15.60;;
19609;SDS011;9952;47.122;-1.638;2023-02-11T21:10:40;22.13;;;13.60;;
19609;SDS011;9952;47.122;-1.638;2023-02-11T21:15:21;23.73;;;14.20;;
19609;SDS011;9952;47.122;-1.638;2023-02-11T21:20:03;22.97;;;14.03;;
19609;SDS011;9952;47.122;-1.638;2023-02-11T21:24:44;23.03;;;14.03;;
19609;SDS011;9952;47.122;-1.638;2023-02-11T21:29:25;22.37;;;12.83;;
19609;SDS011;9952;47.122;-1.638;2023-02-11T21:34:06;21.53;;;12.90;;
19609;SDS011;9952;47.122;-1.638;2023-02-11T21:38:47;24.07;;;13.40;;
19609;SDS011;9952;47.122;-1.638;2023-02-11T21:43:28;26.03;;;13.93;;
19609;SDS011;9952;47.122;-1.638;2023-02-11T21:48:09;19.37;;;12.73;;
19609;SDS011;9952;47.122;-1.638;2023-02-11T21:52:51;24.40;;;13.60;;
19609;SDS011;9952;47.122;-1.638;2023-02-11T21:57:31;21.30;;;13.57;;
19609;SDS011;9952;47.122;-1.638;2023-02-11T22:02:12;27.37;;;16.53;;
19609;SDS011;9952;47.122;-1.638;2023-02-11T22:06:53;35.80;;;18.10;;
19609;SDS011;9952;47.122;-1.638;2023-02-11T22:11:34;31.47;;;17.00;;
19609;SDS011;9952;47.122;-1.638;2023-02-11T22:16:15;37.00;;;19.10;;
19609;SDS011;9952;47.122;-1.638;2023-02-11T22:21:03;34.07;;;18.80;;
19609;SDS011;9952;47.122;-1.638;2023-02-11T22:25:44;34.93;;;18.93;;
19609;SDS011;9952;47.122;-1.638;2023-02-11T22:30:25;33.67;;;18.43;;
19609;SDS011;9952;47.122;-1.638;2023-02-11T22:35:06;28.13;;;16.47;;
19609;SDS011;9952;47.122;-1.638;2023-02-11T22:39:47;31.17;;;15.63;;
19609;SDS011;9952;47.122;-1.638;2023-02-11T22:44:27;30.17;;;16.57;;
19609;SDS011;9952;47.122;-1.638;2023-02-11T22:49:08;29.30;;;17.13;;
19609;SDS011;9952;47.122;-1.638;2023-02-11T22:53:52;27.90;;;16.17;;
19609;SDS011;9952;47.122;-1.638;2023-02-11T22:58:35;27.37;;;17.37;;
19609;SDS011;9952;47.122;-1.638;2023-02-11T23:03:16;29.53;;;17.57;;
19609;SDS011;9952;47.122;-1.638;2023-02-11T23:07:57;30.70;;;17.97;;
19609;SDS011;9952;47.122;-1.638;2023-02-11T23:12:38;28.10;;;16.80;;
19609;SDS011;9952;47.122;-1.638;2023-02-11T23:17:19;31.43;;;17.07;;
19609;SDS011;9952;47.122;-1.638;2023-02-11T23:22:00;33.07;;;17.43;;
19609;SDS011;9952;47.122;-1.638;2023-02-11T23:26:42;29.73;;;17.40;;
19609;SDS011;9952;47.122;-1.638;2023-02-11T23:31:27;33.33;;;18.17;;
19609;SDS011;9952;47.122;-1.638;2023-02-11T23:36:13;34.07;;;18.07;;
19609;SDS011;9952;47.122;-1.638;2023-02-11T23:40:54;28.80;;;17.23;;
19609;SDS011;9952;47.122;-1.638;2023-02-11T23:45:36;27.97;;;16.17;;
19609;SDS011;9952;47.122;-1.638;2023-02-11T23:50:17;28.43;;;17.97;;
19609;SDS011;9952;47.122;-1.638;2023-02-11T23:54:58;28.90;;;17.47;;
19609;SDS011;9952;47.122;-1.638;2023-02-11T23:59:39;33.27;;;18.63;;
